New Alsace, Indiana
Current Conditions -  °F | °C
As of 5:35 AM on Tuesday 27 Jan 2015 (Local Time) from KI67 Reporting Station
Overcast Overcast  
Wind Chill: 15°   Ceiling: 11000
Heat Index: 21°   Visibility: 10mi
Dew Point: 18°   Wind: 5mph
Humidity: 86%   Direction: 50°NE
Pressure: 29.95"   Gusts: NA
Location:  39.2008°N, 84.9646°W
Report Text: KI67 271035Z AUTO 05004KT 10SM SCT028 OVC110 M06/M08 A2995 RMK AO1
Loading
Personal Weather Stations






























Interactive Weather Map New forecast layout! Learn more

10-Day Weather Forecast

Advertisements
Track Severe Weather on mobile